»·PEaware :: AAY618 KLAS-KIWA

AAY618 :: KLAS-KIWA

FLIGHT INFORMATION

Flight Status: Arrived
Operator:
Allegiant Air
More flights by this operator :: More flights under this callsign
Pilot: Chandler S. (807)
Aircraft: AIRBUS A320
(A320)
More flights by this aircraft type
Origin: KLAS McCarran Intl
United States
Destination: KIWA Williams Gateway
United States
More flights between these airports :: More routes between these airports
Route: PRFUM4 DRK DSERT DSERT2
File this flight plan on PilotEdge
Remarks:
Altitude:
(Current/Filed)
27,000ft
Speed:
(Current/Filed)
400kts
Departed: 05-Jul-20 03:09 PM
Arrived: 05-Jul-20 03:59 PM
Distance/Time
Traveled:
239nm/0:50
Distance/Time
To Go:
Arrived

Flight Plot

Page will automatically refresh every two minutes.

Flight plan parsing failed; only flown route is shown


Map Options




Map Legend


Flown Route
Filed Route
Departure Airport
Arrival Airport
Navaid (VOR, NDB)
Fix

Horizontal Profiles

Position Reports

Time Latitude Longitude Heading Altitude Ground
Speed
05-Jul-20 14:43 36.084749 -115.152459 52 2150ft 0kts
05-Jul-20 14:44 36.084749 -115.152459 52 2150ft 0kts
05-Jul-20 14:45 36.084749 -115.152459 52 2150ft 0kts
05-Jul-20 14:46 36.084749 -115.152459 52 2150ft 0kts
05-Jul-20 14:47 36.084749 -115.152459 52 2150ft 0kts
05-Jul-20 14:48 36.084749 -115.152459 52 2150ft 0kts
05-Jul-20 14:49 36.084749 -115.152459 52 2150ft 0kts
05-Jul-20 14:50 36.084749 -115.152459 52 2150ft 0kts
05-Jul-20 14:51 36.084749 -115.152459 52 2150ft 0kts
05-Jul-20 14:52 36.084749 -115.152459 52 2150ft 0kts
05-Jul-20 14:53 36.084749 -115.152460 52 2150ft 0kts
05-Jul-20 14:54 36.084532 -115.152858 53 2150ft 2kts
05-Jul-20 14:55 36.084689 -115.153415 175 2150ft 0kts
05-Jul-20 14:56 36.084770 -115.153414 180 2150ft 0kts
05-Jul-20 14:57 36.084770 -115.153414 180 2150ft 0kts
05-Jul-20 14:58 36.084770 -115.153414 180 2150ft 0kts
05-Jul-20 14:59 36.084770 -115.153414 180 2150ft 0kts
05-Jul-20 15:00 36.084770 -115.153414 180 2150ft 0kts
05-Jul-20 15:02 36.084770 -115.153414 180 2150ft 0kts
05-Jul-20 15:03 36.083600 -115.154970 247 2150ft 5kts
05-Jul-20 15:04 36.085726 -115.157389 334 2150ft 17kts
05-Jul-20 15:05 36.090643 -115.155834 25 2150ft 21kts
05-Jul-20 15:06 36.096463 -115.152554 25 2150ft 24kts
05-Jul-20 15:07 36.097968 -115.152468 305 2150ft 0kts
05-Jul-20 15:08 36.098230 -115.153448 259 2150ft 15kts
05-Jul-20 15:09 36.097154 -115.154379 205 2150ft 42kts
05-Jul-20 15:10 36.057481 -115.177075 204 4330ft 201kts
05-Jul-20 15:11 35.995942 -115.212319 204 6892ft 270kts
05-Jul-20 15:12 35.940440 -115.271912 237 7047ft 254kts
05-Jul-20 15:13 35.878326 -115.287812 172 7051ft 258kts
05-Jul-20 15:14 35.841977 -115.220286 98 8603ft 247kts
05-Jul-20 15:15 35.831783 -115.138504 102 11550ft 248kts
05-Jul-20 15:16 35.823291 -115.048518 86 14482ft 288kts
05-Jul-20 15:17 35.831109 -114.944274 86 17421ft 323kts
05-Jul-20 15:17 35.838300 -114.847069 86 19002ft 374kts
05-Jul-20 15:19 35.849982 -114.687704 86 19137ft 422kts
05-Jul-20 15:20 35.830697 -114.550015 125 21687ft 408kts
05-Jul-20 15:20 35.780211 -114.454760 125 24294ft 394kts
05-Jul-20 15:22 35.710934 -114.324398 126 27003ft 402kts
05-Jul-20 15:22 35.657828 -114.224915 126 27084ft 430kts
05-Jul-20 15:23 35.587922 -114.094316 125 27069ft 481kts
05-Jul-20 15:24 35.512829 -113.954302 125 27076ft 487kts
05-Jul-20 15:25 35.438594 -113.816550 125 27074ft 482kts
05-Jul-20 15:26 35.364226 -113.679228 125 27073ft 482kts
05-Jul-20 15:27 35.290194 -113.543040 125 27073ft 481kts
05-Jul-20 15:28 35.215822 -113.406757 125 27074ft 481kts
05-Jul-20 15:29 35.147135 -113.281358 126 27074ft 481kts
05-Jul-20 15:30 35.072470 -113.145548 126 27132ft 479kts
05-Jul-20 15:31 34.998054 -113.010722 126 27184ft 478kts
05-Jul-20 15:32 34.923672 -112.876466 125 27179ft 479kts
05-Jul-20 15:33 34.858453 -112.759165 124 27180ft 479kts
05-Jul-20 15:34 34.783712 -112.625209 124 26904ft 478kts
05-Jul-20 15:35 34.709627 -112.492040 120 25374ft 476kts
05-Jul-20 15:36 34.659566 -112.343755 111 24191ft 468kts
05-Jul-20 15:37 34.613758 -112.198759 111 24170ft 462kts
05-Jul-20 15:38 34.567796 -112.054099 111 24172ft 457kts
05-Jul-20 15:39 34.521890 -111.910309 111 24150ft 455kts
05-Jul-20 15:40 34.476214 -111.767902 111 24143ft 453kts
05-Jul-20 15:41 34.391796 -111.670502 178 24171ft 440kts
05-Jul-20 15:42 34.277415 -111.713651 198 24173ft 435kts
05-Jul-20 15:43 34.161551 -111.751386 195 22871ft 429kts
05-Jul-20 15:44 34.046537 -111.786325 194 21079ft 425kts
05-Jul-20 15:45 33.940312 -111.743074 145 19265ft 413kts
05-Jul-20 15:46 33.847839 -111.664934 146 17352ft 397kts
05-Jul-20 15:47 33.758131 -111.590316 146 15397ft 386kts
05-Jul-20 15:48 33.671266 -111.518337 146 13586ft 373kts
05-Jul-20 15:49 33.582323 -111.497479 206 11661ft 312kts
05-Jul-20 15:50 33.506747 -111.541009 207 9436ft 293kts
05-Jul-20 15:51 33.434935 -111.582366 207 6802ft 283kts
05-Jul-20 15:52 33.367862 -111.620576 200 6026ft 245kts
05-Jul-20 15:53 33.307181 -111.588001 136 4125ft 256kts
05-Jul-20 15:54 33.256995 -111.542041 185 4047ft 195kts
05-Jul-20 15:55 33.245882 -111.586875 308 3175ft 165kts
05-Jul-20 15:56 33.277566 -111.626018 315 2105ft 149kts
05-Jul-20 15:57 33.304633 -111.657722 315 1388ft 106kts
05-Jul-20 15:58 33.310875 -111.667334 210 1388ft 20kts
05-Jul-20 15:59 33.307561 -111.668428 269 1388ft 0kts
05-Jul-20 16:00 33.307561 -111.668427 269 1388ft 0kts
05-Jul-20 16:01 33.307561 -111.668427 269 1388ft 0kts
05-Jul-20 16:02 33.307561 -111.668427 269 1388ft 0kts
05-Jul-20 16:03 33.307561 -111.668427 269 1388ft 0kts
05-Jul-20 16:04 33.307561 -111.668427 269 1388ft 0kts
05-Jul-20 16:05 33.307561 -111.668427 269 1388ft 0kts
05-Jul-20 16:06 33.307561 -111.668427 269 1388ft 0kts
05-Jul-20 16:07 33.307561 -111.668427 269 1388ft 0kts
05-Jul-20 16:08 33.307561 -111.668427 269 1388ft 0kts
05-Jul-20 16:09 33.307561 -111.668427 269 1388ft 0kts
05-Jul-20 16:10 33.307561 -111.668427 269 1388ft 0kts
05-Jul-20 16:11 33.307561 -111.668427 269 1388ft 0kts
05-Jul-20 16:12 33.307561 -111.668427 269 1388ft 0kts
05-Jul-20 16:13 33.307561 -111.668427 269 1388ft 0kts

Navigation Log

Ident Type
Flight plan parsing failed, navigation log unavailable